TAP203 LPPT-KEWR
Flight info
| Callsign | TAP203 |
|---|---|
| Flight time | N/A |
| Altitude | 38000 |
| Route | ELNUB DCT DETOX/M080F380 DCT 43N020W 47N030W 49N040W 50N050W DCT ELSIR/N0455F380 N406A TOPPS DCT HANAA FLOSI4 |
| Aircraft | A343/H-SDE2E3FGHIJ4J5M1RWXY/LB1D1 |
Departure
| Time | N/A |
|---|---|
| Airport | Lisbon Humberto Delgado Airport (LPPT) |
Arrival
| Time | 2026-04-30 04:42 |
|---|---|
| Airport | Newark Liberty International Airport (KEWR) |
| Time | Latitude | Longitude | Altitude | Speed | Heading |
|---|---|---|---|---|---|
| 2026-04-30 01:35 | 49.96139 | -49.33641 | 38414 ft | 460 kts | 276° |
| 2026-04-30 01:36 | 49.96742 | -49.43545 | 38414 ft | 460 kts | 275° |
| 2026-04-30 01:36 | 49.97334 | -49.53429 | 38414 ft | 459 kts | 275° |
| 2026-04-30 01:37 | 49.97916 | -49.63308 | 38409 ft | 459 kts | 275° |
| 2026-04-30 01:37 | 49.98491 | -49.73180 | 38411 ft | 458 kts | 275° |
| 2026-04-30 01:38 | 49.99056 | -49.83050 | 38409 ft | 458 kts | 275° |
| 2026-04-30 01:38 | 49.99606 | -49.92854 | 38405 ft | 458 kts | 274° |
| 2026-04-30 01:39 | 49.99154 | -50.02677 | 38403 ft | 456 kts | 255° |
| 2026-04-30 01:39 | 49.97202 | -50.12046 | 38401 ft | 456 kts | 249° |
| 2026-04-30 01:40 | 49.94962 | -50.21280 | 38401 ft | 456 kts | 248° |
| 2026-04-30 01:40 | 49.92689 | -50.30476 | 38401 ft | 456 kts | 248° |
| 2026-04-30 01:41 | 49.90438 | -50.39666 | 38400 ft | 455 kts | 248° |
| 2026-04-30 01:41 | 49.88197 | -50.48850 | 38400 ft | 455 kts | 248° |
| 2026-04-30 01:42 | 49.85955 | -50.58017 | 38400 ft | 455 kts | 248° |
| 2026-04-30 01:42 | 49.83717 | -50.67127 | 38400 ft | 455 kts | 248° |
| 2026-04-30 01:43 | 49.81456 | -50.76292 | 38401 ft | 454 kts | 248° |
| 2026-04-30 01:43 | 49.79192 | -50.85425 | 38401 ft | 454 kts | 248° |
| 2026-04-30 01:44 | 49.76923 | -50.94546 | 38397 ft | 453 kts | 247° |
| 2026-04-30 01:44 | 49.74669 | -51.03565 | 38398 ft | 452 kts | 247° |
| 2026-04-30 01:45 | 49.72396 | -51.12624 | 38395 ft | 452 kts | 247° |
| 2026-04-30 01:45 | 49.70117 | -51.21671 | 38395 ft | 452 kts | 247° |
| 2026-04-30 01:46 | 49.67831 | -51.30712 | 38387 ft | 451 kts | 247° |
| 2026-04-30 01:46 | 49.65539 | -51.39739 | 38387 ft | 451 kts | 247° |
| 2026-04-30 01:47 | 49.63240 | -51.48757 | 38387 ft | 451 kts | 247° |
| 2026-04-30 01:47 | 49.60931 | -51.57776 | 38387 ft | 451 kts | 246° |
| 2026-04-30 01:48 | 49.58619 | -51.66776 | 38386 ft | 451 kts | 247° |
| 2026-04-30 01:48 | 49.56314 | -51.75709 | 38384 ft | 451 kts | 247° |
| 2026-04-30 01:49 | 49.53987 | -51.84692 | 38385 ft | 452 kts | 247° |
| 2026-04-30 01:49 | 49.51652 | -51.93676 | 38384 ft | 450 kts | 246° |
| 2026-04-30 01:50 | 49.49547 | -52.02732 | 38381 ft | 450 kts | 251° |
| 2026-04-30 01:50 | 49.47823 | -52.11996 | 38375 ft | 450 kts | 252° |
| 2026-04-30 01:51 | 49.46156 | -52.21281 | 38377 ft | 451 kts | 253° |
| 2026-04-30 01:51 | 49.44496 | -52.30509 | 38376 ft | 451 kts | 252° |
| 2026-04-30 01:52 | 49.42811 | -52.39784 | 38368 ft | 450 kts | 252° |
| 2026-04-30 01:52 | 49.41114 | -52.49047 | 38367 ft | 450 kts | 252° |
| 2026-04-30 01:53 | 49.39408 | -52.58304 | 38365 ft | 450 kts | 252° |
| 2026-04-30 01:53 | 49.37695 | -52.67557 | 38365 ft | 451 kts | 252° |
| 2026-04-30 01:54 | 49.35978 | -52.76789 | 38356 ft | 449 kts | 251° |
| 2026-04-30 01:54 | 49.34259 | -52.85979 | 38357 ft | 447 kts | 251° |
| 2026-04-30 01:55 | 49.32535 | -52.95148 | 38358 ft | 448 kts | 252° |
| 2026-04-30 01:55 | 49.30815 | -53.04267 | 38348 ft | 447 kts | 252° |
| 2026-04-30 01:56 | 49.29079 | -53.13423 | 38330 ft | 447 kts | 251° |
| 2026-04-30 01:56 | 49.27337 | -53.22563 | 38346 ft | 447 kts | 252° |
| 2026-04-30 01:57 | 49.25584 | -53.31713 | 38339 ft | 447 kts | 251° |
| 2026-04-30 01:57 | 49.23822 | -53.40858 | 38327 ft | 447 kts | 251° |
| 2026-04-30 01:58 | 49.22055 | -53.49987 | 38345 ft | 447 kts | 252° |
| 2026-04-30 01:58 | 49.20288 | -53.59079 | 38332 ft | 445 kts | 252° |
| 2026-04-30 01:59 | 49.17641 | -53.72623 | 38319 ft | 445 kts | 252° |
| 2026-04-30 02:00 | 49.15857 | -53.81692 | 38317 ft | 445 kts | 252° |
| 2026-04-30 02:00 | 49.14066 | -53.90759 | 38320 ft | 445 kts | 251° |
| 2026-04-30 02:01 | 49.12268 | -53.99815 | 38313 ft | 445 kts | 252° |
| 2026-04-30 02:01 | 49.10463 | -54.08868 | 38310 ft | 445 kts | 251° |
| 2026-04-30 02:02 | 49.08654 | -54.17898 | 38309 ft | 445 kts | 251° |
| 2026-04-30 02:02 | 49.06847 | -54.26876 | 38314 ft | 445 kts | 251° |
| 2026-04-30 02:03 | 49.05030 | -54.35862 | 38303 ft | 443 kts | 251° |
| 2026-04-30 02:03 | 49.03209 | -54.44824 | 38288 ft | 442 kts | 251° |
| 2026-04-30 02:04 | 49.01383 | -54.53774 | 38283 ft | 442 kts | 251° |
| 2026-04-30 02:04 | 48.99551 | -54.62712 | 38286 ft | 442 kts | 251° |
| 2026-04-30 02:05 | 48.97711 | -54.71648 | 38281 ft | 442 kts | 251° |
| 2026-04-30 02:05 | 48.95865 | -54.80571 | 38291 ft | 442 kts | 251° |
| 2026-04-30 02:06 | 48.94012 | -54.89491 | 38290 ft | 442 kts | 251° |
| 2026-04-30 02:06 | 48.92152 | -54.98406 | 38295 ft | 442 kts | 251° |
| 2026-04-30 02:07 | 48.90297 | -55.07253 | 38300 ft | 441 kts | 251° |
| 2026-04-30 02:07 | 48.88431 | -55.16120 | 38298 ft | 440 kts | 251° |
| 2026-04-30 02:08 | 48.86557 | -55.24982 | 38297 ft | 440 kts | 251° |
| 2026-04-30 02:08 | 48.84678 | -55.33828 | 38297 ft | 440 kts | 251° |
| 2026-04-30 02:09 | 48.82791 | -55.42675 | 38300 ft | 440 kts | 251° |
| 2026-04-30 02:09 | 48.80898 | -55.51510 | 38292 ft | 441 kts | 251° |
| 2026-04-30 02:10 | 48.78997 | -55.60347 | 38294 ft | 440 kts | 251° |
| 2026-04-30 02:10 | 48.77102 | -55.69119 | 38294 ft | 440 kts | 251° |
| 2026-04-30 02:11 | 48.75189 | -55.77937 | 38299 ft | 441 kts | 251° |
| 2026-04-30 02:11 | 48.73269 | -55.86752 | 38294 ft | 440 kts | 251° |
| 2026-04-30 02:12 | 48.71343 | -55.95548 | 38289 ft | 440 kts | 252° |
| 2026-04-30 02:12 | 48.69406 | -56.04362 | 38288 ft | 441 kts | 252° |
| 2026-04-30 02:13 | 48.67462 | -56.13167 | 38290 ft | 441 kts | 252° |
| 2026-04-30 02:13 | 48.65841 | -56.20486 | 38291 ft | 441 kts | 252° |
| 2026-04-30 02:14 | 48.63883 | -56.29288 | 38291 ft | 441 kts | 252° |
| 2026-04-30 02:14 | 48.61599 | -56.39510 | 38282 ft | 442 kts | 252° |
| 2026-04-30 02:15 | 48.59941 | -56.46899 | 38288 ft | 444 kts | 252° |
| 2026-04-30 02:15 | 48.57953 | -56.55726 | 38286 ft | 444 kts | 252° |
| 2026-04-30 02:16 | 48.55957 | -56.64548 | 38290 ft | 444 kts | 251° |
| 2026-04-30 02:16 | 48.53970 | -56.73295 | 38285 ft | 444 kts | 251° |
| 2026-04-30 02:17 | 48.51961 | -56.82106 | 38283 ft | 444 kts | 251° |
| 2026-04-30 02:17 | 48.49945 | -56.90910 | 38284 ft | 444 kts | 251° |
| 2026-04-30 02:18 | 48.47922 | -56.99706 | 38296 ft | 444 kts | 251° |
| 2026-04-30 02:18 | 48.45893 | -57.08496 | 38298 ft | 444 kts | 251° |
| 2026-04-30 02:19 | 48.43870 | -57.17219 | 38304 ft | 444 kts | 251° |
| 2026-04-30 02:19 | 48.41829 | -57.25988 | 38314 ft | 444 kts | 251° |
| 2026-04-30 02:20 | 48.39785 | -57.34731 | 38309 ft | 442 kts | 250° |
| 2026-04-30 02:20 | 48.37743 | -57.43432 | 38311 ft | 441 kts | 250° |
| 2026-04-30 02:21 | 48.35693 | -57.52131 | 38314 ft | 441 kts | 250° |
| 2026-04-30 02:21 | 48.33640 | -57.60811 | 38314 ft | 441 kts | 250° |
| 2026-04-30 02:22 | 48.31579 | -57.69488 | 38309 ft | 441 kts | 250° |
| 2026-04-30 02:22 | 48.29514 | -57.78151 | 38312 ft | 440 kts | 250° |
| 2026-04-30 02:23 | 48.27445 | -57.86795 | 38312 ft | 439 kts | 250° |
| 2026-04-30 02:23 | 48.25369 | -57.95429 | 38312 ft | 439 kts | 250° |
| 2026-04-30 02:24 | 48.23301 | -58.04000 | 38309 ft | 439 kts | 250° |
| 2026-04-30 02:24 | 48.21214 | -58.12619 | 38304 ft | 439 kts | 250° |
| 2026-04-30 02:25 | 48.19120 | -58.21228 | 38306 ft | 439 kts | 249° |
| 2026-04-30 02:25 | 48.17023 | -58.29821 | 38311 ft | 439 kts | 249° |
| 2026-04-30 02:26 | 48.14917 | -58.38414 | 38308 ft | 439 kts | 249° |
| 2026-04-30 02:26 | 48.12807 | -58.46991 | 38308 ft | 439 kts | 249° |
| 2026-04-30 02:27 | 48.10690 | -58.55564 | 38309 ft | 439 kts | 249° |
| 2026-04-30 02:27 | 48.08566 | -58.64130 | 38312 ft | 439 kts | 249° |
| 2026-04-30 02:28 | 48.06436 | -58.72692 | 38299 ft | 438 kts | 248° |
| 2026-04-30 02:28 | 48.04306 | -58.81220 | 38302 ft | 437 kts | 248° |
| 2026-04-30 02:29 | 48.02171 | -58.89731 | 38305 ft | 437 kts | 248° |
| 2026-04-30 02:29 | 48.00046 | -58.98174 | 38292 ft | 437 kts | 248° |
| 2026-04-30 02:30 | 47.97901 | -59.06668 | 38295 ft | 437 kts | 248° |
| 2026-04-30 02:30 | 47.95738 | -59.15202 | 38293 ft | 436 kts | 248° |
| 2026-04-30 02:31 | 47.93599 | -59.23603 | 38292 ft | 436 kts | 248° |
| 2026-04-30 02:31 | 47.91442 | -59.32044 | 38289 ft | 436 kts | 248° |
| 2026-04-30 02:32 | 47.89281 | -59.40472 | 38290 ft | 435 kts | 248° |
| 2026-04-30 02:32 | 47.87112 | -59.48902 | 38287 ft | 436 kts | 247° |
| 2026-04-30 02:33 | 47.84936 | -59.57324 | 38286 ft | 435 kts | 247° |
| 2026-04-30 02:33 | 47.82758 | -59.65724 | 38284 ft | 434 kts | 247° |
| 2026-04-30 02:34 | 47.80576 | -59.74112 | 38280 ft | 434 kts | 247° |
| 2026-04-30 02:34 | 47.78387 | -59.82493 | 38284 ft | 434 kts | 247° |
| 2026-04-30 02:35 | 47.76194 | -59.90858 | 38283 ft | 434 kts | 247° |
| 2026-04-30 02:35 | 47.73994 | -59.99224 | 38279 ft | 434 kts | 246° |
| 2026-04-30 02:36 | 47.71791 | -60.07568 | 38278 ft | 434 kts | 246° |
| 2026-04-30 02:36 | 47.69584 | -60.15901 | 38271 ft | 432 kts | 246° |
| 2026-04-30 02:37 | 47.67383 | -60.24180 | 38275 ft | 431 kts | 246° |
| 2026-04-30 02:37 | 47.65180 | -60.32437 | 38272 ft | 429 kts | 246° |
| 2026-04-30 02:38 | 47.62998 | -60.40586 | 38263 ft | 428 kts | 246° |
| 2026-04-30 02:38 | 47.60797 | -60.48774 | 38263 ft | 426 kts | 246° |
| 2026-04-30 02:39 | 47.58599 | -60.56928 | 38258 ft | 426 kts | 246° |
| 2026-04-30 02:39 | 47.56393 | -60.65078 | 38260 ft | 426 kts | 245° |
| 2026-04-30 02:40 | 47.54183 | -60.73216 | 38249 ft | 426 kts | 245° |
| 2026-04-30 02:40 | 47.51966 | -60.81354 | 38263 ft | 426 kts | 245° |
| 2026-04-30 02:41 | 47.49750 | -60.89464 | 38246 ft | 424 kts | 245° |
| 2026-04-30 02:41 | 47.47538 | -60.97529 | 38241 ft | 423 kts | 245° |
| 2026-04-30 02:42 | 47.45337 | -61.05523 | 38245 ft | 422 kts | 245° |
| 2026-04-30 02:42 | 47.43116 | -61.13563 | 38244 ft | 422 kts | 245° |
| 2026-04-30 02:43 | 47.40886 | -61.21610 | 38235 ft | 422 kts | 245° |
| 2026-04-30 02:43 | 47.38654 | -61.29637 | 38233 ft | 422 kts | 245° |
| 2026-04-30 02:44 | 47.36417 | -61.37658 | 38229 ft | 422 kts | 245° |
| 2026-04-30 02:44 | 47.34190 | -61.45615 | 38227 ft | 422 kts | 245° |
| 2026-04-30 02:45 | 47.31945 | -61.53609 | 38223 ft | 422 kts | 245° |
| 2026-04-30 02:45 | 47.29696 | -61.61591 | 38220 ft | 421 kts | 245° |
| 2026-04-30 02:46 | 47.27442 | -61.69562 | 38226 ft | 421 kts | 245° |
| 2026-04-30 02:46 | 47.25180 | -61.77537 | 38221 ft | 422 kts | 245° |
| 2026-04-30 02:47 | 47.22912 | -61.85508 | 38225 ft | 422 kts | 245° |
| 2026-04-30 02:47 | 47.20639 | -61.93469 | 38228 ft | 422 kts | 245° |
| 2026-04-30 02:48 | 47.18358 | -62.01432 | 38228 ft | 422 kts | 245° |
| 2026-04-30 02:48 | 47.16088 | -62.09328 | 38226 ft | 422 kts | 245° |
| 2026-04-30 02:49 | 47.13798 | -62.17271 | 38241 ft | 423 kts | 245° |
| 2026-04-30 02:49 | 47.11493 | -62.25240 | 38219 ft | 424 kts | 245° |
| 2026-04-30 02:50 | 47.09181 | -62.33207 | 38217 ft | 425 kts | 245° |
| 2026-04-30 02:50 | 47.06856 | -62.41192 | 38214 ft | 425 kts | 245° |
| 2026-04-30 02:51 | 47.04529 | -62.49160 | 38216 ft | 425 kts | 245° |
| 2026-04-30 02:51 | 47.02197 | -62.57118 | 38212 ft | 425 kts | 245° |
| 2026-04-30 02:52 | 46.99871 | -62.65029 | 38209 ft | 426 kts | 245° |
| 2026-04-30 02:52 | 46.97523 | -62.72990 | 38207 ft | 426 kts | 244° |
| 2026-04-30 02:53 | 46.95165 | -62.80959 | 38210 ft | 426 kts | 244° |
| 2026-04-30 02:53 | 46.92805 | -62.88909 | 38201 ft | 426 kts | 244° |
| 2026-04-30 02:54 | 46.90435 | -62.96867 | 38193 ft | 426 kts | 244° |
| 2026-04-30 02:54 | 46.88056 | -63.04826 | 38196 ft | 427 kts | 244° |
| 2026-04-30 02:55 | 46.85669 | -63.12791 | 38190 ft | 428 kts | 244° |
| 2026-04-30 02:55 | 46.83278 | -63.20743 | 38189 ft | 428 kts | 244° |
| 2026-04-30 02:56 | 46.80880 | -63.28694 | 38187 ft | 428 kts | 244° |
| 2026-04-30 02:56 | 46.78477 | -63.36635 | 38182 ft | 427 kts | 244° |
| 2026-04-30 02:57 | 46.76068 | -63.44568 | 38178 ft | 428 kts | 244° |
| 2026-04-30 02:57 | 46.73664 | -63.52462 | 38178 ft | 429 kts | 244° |
| 2026-04-30 02:58 | 46.71230 | -63.60429 | 38172 ft | 430 kts | 244° |
| 2026-04-30 02:58 | 46.68789 | -63.68393 | 38171 ft | 430 kts | 244° |
| 2026-04-30 02:59 | 46.66343 | -63.76350 | 38168 ft | 430 kts | 244° |
| 2026-04-30 02:59 | 46.63891 | -63.84301 | 38168 ft | 431 kts | 244° |
| 2026-04-30 03:00 | 46.61845 | -63.90916 | 38162 ft | 431 kts | 244° |
| 2026-04-30 03:00 | 46.59379 | -63.98866 | 38162 ft | 431 kts | 244° |
| 2026-04-30 03:01 | 46.56909 | -64.06803 | 38164 ft | 431 kts | 244° |
| 2026-04-30 03:01 | 46.54431 | -64.14742 | 38164 ft | 431 kts | 244° |
| 2026-04-30 03:02 | 46.51951 | -64.22662 | 38156 ft | 431 kts | 244° |
| 2026-04-30 03:02 | 46.49467 | -64.30571 | 38159 ft | 430 kts | 244° |
| 2026-04-30 03:03 | 46.46976 | -64.38475 | 38149 ft | 430 kts | 244° |
| 2026-04-30 03:03 | 46.43246 | -64.50267 | 38145 ft | 430 kts | 244° |
| 2026-04-30 03:04 | 46.40742 | -64.58156 | 38135 ft | 430 kts | 244° |
| 2026-04-30 03:04 | 46.38233 | -64.66034 | 38134 ft | 430 kts | 244° |
| 2026-04-30 03:05 | 46.35722 | -64.73892 | 38135 ft | 430 kts | 244° |
| 2026-04-30 03:05 | 46.33205 | -64.81748 | 38128 ft | 430 kts | 244° |
| 2026-04-30 03:06 | 46.30682 | -64.89596 | 38135 ft | 430 kts | 244° |
| 2026-04-30 03:06 | 46.28154 | -64.97438 | 38124 ft | 430 kts | 244° |
| 2026-04-30 03:07 | 46.25621 | -65.05272 | 38122 ft | 430 kts | 244° |
| 2026-04-30 03:07 | 46.23087 | -65.13085 | 38127 ft | 429 kts | 244° |
| 2026-04-30 03:08 | 46.20564 | -65.20840 | 38123 ft | 429 kts | 244° |
| 2026-04-30 03:08 | 46.18018 | -65.28642 | 38129 ft | 429 kts | 244° |
| 2026-04-30 03:09 | 46.15467 | -65.36435 | 38124 ft | 429 kts | 244° |
| 2026-04-30 03:09 | 46.12911 | -65.44221 | 38124 ft | 429 kts | 244° |
| 2026-04-30 03:10 | 46.10352 | -65.51991 | 38126 ft | 429 kts | 244° |
| 2026-04-30 03:10 | 46.07784 | -65.59764 | 38121 ft | 429 kts | 244° |
| 2026-04-30 03:11 | 46.05212 | -65.67527 | 38120 ft | 430 kts | 244° |
| 2026-04-30 03:11 | 46.02633 | -65.75289 | 38119 ft | 430 kts | 244° |
| 2026-04-30 03:12 | 46.00049 | -65.83044 | 38117 ft | 430 kts | 244° |
| 2026-04-30 03:12 | 45.97457 | -65.90798 | 38117 ft | 430 kts | 244° |
| 2026-04-30 03:13 | 45.94858 | -65.98554 | 38120 ft | 430 kts | 244° |
| 2026-04-30 03:13 | 45.92254 | -66.06298 | 38113 ft | 431 kts | 244° |
| 2026-04-30 03:14 | 45.89635 | -66.14064 | 38122 ft | 432 kts | 244° |
| 2026-04-30 03:14 | 45.87029 | -66.21770 | 38118 ft | 431 kts | 244° |
| 2026-04-30 03:15 | 45.84403 | -66.29511 | 38116 ft | 431 kts | 244° |
| 2026-04-30 03:15 | 45.81775 | -66.37239 | 38119 ft | 431 kts | 244° |
| 2026-04-30 03:16 | 45.79140 | -66.44962 | 38111 ft | 431 kts | 244° |
| 2026-04-30 03:16 | 45.76501 | -66.52675 | 38115 ft | 431 kts | 244° |
| 2026-04-30 03:17 | 45.73856 | -66.60381 | 38116 ft | 430 kts | 244° |
| 2026-04-30 03:17 | 45.71217 | -66.68051 | 38106 ft | 428 kts | 244° |
| 2026-04-30 03:18 | 45.68587 | -66.75670 | 38114 ft | 427 kts | 244° |
| 2026-04-30 03:18 | 45.65953 | -66.83277 | 38111 ft | 427 kts | 244° |
| 2026-04-30 03:19 | 45.63315 | -66.90880 | 38094 ft | 427 kts | 244° |
| 2026-04-30 03:19 | 45.60687 | -66.98427 | 38090 ft | 426 kts | 244° |
| 2026-04-30 03:20 | 45.58045 | -67.05996 | 38098 ft | 425 kts | 244° |
| 2026-04-30 03:20 | 45.55401 | -67.13549 | 38092 ft | 425 kts | 244° |
| 2026-04-30 03:21 | 45.52750 | -67.21101 | 38103 ft | 425 kts | 244° |
| 2026-04-30 03:21 | 45.50095 | -67.28641 | 38095 ft | 425 kts | 244° |
| 2026-04-30 03:22 | 45.47447 | -67.36141 | 38091 ft | 422 kts | 244° |
| 2026-04-30 03:22 | 45.44807 | -67.43597 | 38099 ft | 421 kts | 244° |
| 2026-04-30 03:23 | 45.42182 | -67.50995 | 38100 ft | 421 kts | 244° |
| 2026-04-30 03:23 | 45.39533 | -67.58436 | 38084 ft | 421 kts | 244° |
| 2026-04-30 03:24 | 45.36878 | -67.65873 | 38080 ft | 421 kts | 244° |
| 2026-04-30 03:24 | 45.34222 | -67.73295 | 38082 ft | 420 kts | 244° |
| 2026-04-30 03:25 | 45.31704 | -67.80777 | 38079 ft | 419 kts | 246° |
| 2026-04-30 03:25 | 45.29287 | -67.88250 | 38085 ft | 419 kts | 245° |
| 2026-04-30 03:26 | 45.26831 | -67.95757 | 38067 ft | 419 kts | 245° |
| 2026-04-30 03:26 | 45.24366 | -68.03243 | 38083 ft | 419 kts | 245° |
| 2026-04-30 03:27 | 45.21895 | -68.10717 | 38070 ft | 418 kts | 245° |
| 2026-04-30 03:27 | 45.19420 | -68.18182 | 38073 ft | 418 kts | 245° |
| 2026-04-30 03:28 | 45.16944 | -68.25629 | 38069 ft | 417 kts | 245° |
| 2026-04-30 03:28 | 45.14479 | -68.33018 | 38059 ft | 417 kts | 245° |
| 2026-04-30 03:29 | 45.11994 | -68.40448 | 38075 ft | 418 kts | 245° |
| 2026-04-30 03:29 | 45.09501 | -68.47881 | 38055 ft | 418 kts | 244° |
| 2026-04-30 03:30 | 45.07003 | -68.55309 | 38052 ft | 418 kts | 244° |
| 2026-04-30 03:30 | 45.04498 | -68.62736 | 38051 ft | 418 kts | 244° |
| 2026-04-30 03:31 | 45.01989 | -68.70156 | 38041 ft | 418 kts | 244° |
| 2026-04-30 03:31 | 44.99477 | -68.77562 | 38050 ft | 418 kts | 244° |
| 2026-04-30 03:32 | 44.96958 | -68.84968 | 38037 ft | 418 kts | 244° |
| 2026-04-30 03:32 | 44.94433 | -68.92371 | 38044 ft | 418 kts | 244° |
| 2026-04-30 03:33 | 44.91921 | -68.99719 | 38046 ft | 419 kts | 244° |
| 2026-04-30 03:33 | 44.89377 | -69.07136 | 38048 ft | 420 kts | 244° |
| 2026-04-30 03:34 | 44.86830 | -69.14542 | 38043 ft | 420 kts | 244° |
| 2026-04-30 03:34 | 44.84276 | -69.21950 | 38033 ft | 420 kts | 244° |
| 2026-04-30 03:35 | 44.81715 | -69.29355 | 38035 ft | 420 kts | 244° |
| 2026-04-30 03:35 | 44.79160 | -69.36723 | 38026 ft | 420 kts | 244° |
| 2026-04-30 03:36 | 44.76586 | -69.44126 | 38025 ft | 420 kts | 244° |
| 2026-04-30 03:36 | 44.74015 | -69.51501 | 38011 ft | 420 kts | 243° |
| 2026-04-30 03:37 | 44.71433 | -69.58885 | 38010 ft | 421 kts | 243° |
| 2026-04-30 03:37 | 44.68837 | -69.66291 | 38004 ft | 423 kts | 243° |
| 2026-04-30 03:38 | 44.66233 | -69.73701 | 38003 ft | 423 kts | 243° |
| 2026-04-30 03:38 | 44.63621 | -69.81112 | 37998 ft | 423 kts | 243° |
| 2026-04-30 03:39 | 44.61005 | -69.88512 | 38002 ft | 423 kts | 243° |
| 2026-04-30 03:39 | 44.58386 | -69.95902 | 38023 ft | 423 kts | 243° |
| 2026-04-30 03:40 | 44.55758 | -70.03298 | 38017 ft | 424 kts | 243° |
| 2026-04-30 03:40 | 44.53123 | -70.10693 | 38026 ft | 424 kts | 243° |
| 2026-04-30 03:41 | 44.50498 | -70.18039 | 38028 ft | 424 kts | 243° |
| 2026-04-30 03:41 | 44.47852 | -70.25423 | 38028 ft | 424 kts | 243° |
| 2026-04-30 03:42 | 44.45202 | -70.32799 | 38029 ft | 424 kts | 243° |
| 2026-04-30 03:42 | 44.42548 | -70.40164 | 38041 ft | 423 kts | 243° |
| 2026-04-30 03:43 | 44.39894 | -70.47514 | 38021 ft | 423 kts | 243° |
| 2026-04-30 03:43 | 44.37234 | -70.54856 | 38024 ft | 423 kts | 243° |
| 2026-04-30 03:44 | 44.34569 | -70.62197 | 38024 ft | 423 kts | 243° |
| 2026-04-30 03:44 | 44.31900 | -70.69528 | 38004 ft | 423 kts | 243° |
| 2026-04-30 03:45 | 44.29228 | -70.76846 | 37999 ft | 422 kts | 243° |
| 2026-04-30 03:45 | 44.27010 | -70.82906 | 37995 ft | 422 kts | 243° |
| 2026-04-30 03:46 | 44.23904 | -70.91371 | 38009 ft | 422 kts | 243° |
| 2026-04-30 03:46 | 44.21677 | -70.97425 | 38001 ft | 422 kts | 243° |
| 2026-04-30 03:47 | 44.18997 | -71.04692 | 38002 ft | 422 kts | 243° |
| 2026-04-30 03:47 | 44.16311 | -71.11959 | 37995 ft | 421 kts | 242° |
| 2026-04-30 03:48 | 44.13624 | -71.19207 | 37991 ft | 421 kts | 242° |
| 2026-04-30 03:48 | 44.10937 | -71.26435 | 37982 ft | 420 kts | 242° |
| 2026-04-30 03:49 | 44.08246 | -71.33656 | 37981 ft | 421 kts | 242° |
| 2026-04-30 03:49 | 44.05549 | -71.40874 | 37967 ft | 421 kts | 242° |
| 2026-04-30 03:50 | 44.02848 | -71.48085 | 37972 ft | 420 kts | 242° |
| 2026-04-30 03:50 | 44.00151 | -71.55265 | 37953 ft | 419 kts | 242° |
| 2026-04-30 03:51 | 43.97451 | -71.62435 | 37939 ft | 419 kts | 242° |
| 2026-04-30 03:51 | 43.94743 | -71.69610 | 37949 ft | 420 kts | 242° |
| 2026-04-30 03:52 | 43.92040 | -71.76753 | 37935 ft | 420 kts | 242° |
| 2026-04-30 03:52 | 43.89316 | -71.83933 | 37930 ft | 422 kts | 242° |
| 2026-04-30 03:53 | 43.86574 | -71.91137 | 37927 ft | 423 kts | 242° |
| 2026-04-30 03:53 | 43.83827 | -71.98342 | 37910 ft | 423 kts | 241° |
| 2026-04-30 03:54 | 43.81071 | -72.05553 | 37911 ft | 423 kts | 241° |
| 2026-04-30 03:54 | 43.78312 | -72.12747 | 37912 ft | 423 kts | 241° |
| 2026-04-30 03:55 | 43.75548 | -72.19939 | 37910 ft | 424 kts | 242° |
| 2026-04-30 03:55 | 43.72766 | -72.27161 | 37914 ft | 425 kts | 242° |
| 2026-04-30 03:56 | 43.69974 | -72.34389 | 37915 ft | 426 kts | 242° |
| 2026-04-30 03:56 | 43.67182 | -72.41597 | 37914 ft | 426 kts | 242° |
| 2026-04-30 03:57 | 43.64385 | -72.48800 | 37911 ft | 426 kts | 242° |
| 2026-04-30 03:57 | 43.61588 | -72.55982 | 37904 ft | 423 kts | 242° |
| 2026-04-30 03:58 | 43.58822 | -72.63070 | 37880 ft | 421 kts | 242° |
| 2026-04-30 03:58 | 43.56040 | -72.70181 | 37867 ft | 420 kts | 242° |
| 2026-04-30 03:59 | 43.53261 | -72.77267 | 37861 ft | 420 kts | 242° |
| 2026-04-30 03:59 | 43.50477 | -72.84346 | 37859 ft | 420 kts | 242° |
| 2026-04-30 04:00 | 43.47689 | -72.91419 | 37861 ft | 420 kts | 242° |
| 2026-04-30 04:00 | 43.44895 | -72.98490 | 37864 ft | 419 kts | 242° |
| 2026-04-30 04:01 | 43.42123 | -73.05488 | 37859 ft | 418 kts | 242° |
| 2026-04-30 04:01 | 43.39332 | -73.12516 | 37858 ft | 419 kts | 242° |
| 2026-04-30 04:02 | 43.36535 | -73.19542 | 37827 ft | 418 kts | 241° |
| 2026-04-30 04:02 | 43.33744 | -73.26537 | 37846 ft | 416 kts | 241° |
| 2026-04-30 04:03 | 43.30954 | -73.33510 | 37847 ft | 416 kts | 241° |
| 2026-04-30 04:03 | 43.28165 | -73.40466 | 37844 ft | 416 kts | 241° |
| 2026-04-30 04:04 | 43.25389 | -73.47372 | 37842 ft | 416 kts | 241° |
| 2026-04-30 04:04 | 43.22541 | -73.54274 | 37842 ft | 416 kts | 237° |
| 2026-04-30 04:05 | 43.18679 | -73.60148 | 37841 ft | 418 kts | 219° |
| 2026-04-30 04:05 | 43.13561 | -73.63950 | 37850 ft | 423 kts | 202° |
| 2026-04-30 04:06 | 43.07920 | -73.66365 | 37855 ft | 425 kts | 200° |
| 2026-04-30 04:06 | 43.02256 | -73.68733 | 37855 ft | 426 kts | 200° |
| 2026-04-30 04:07 | 42.96582 | -73.71123 | 37861 ft | 426 kts | 201° |
| 2026-04-30 04:08 | 42.88117 | -73.74690 | 37868 ft | 426 kts | 201° |
| 2026-04-30 04:08 | 42.82447 | -73.77075 | 37860 ft | 426 kts | 201° |
| 2026-04-30 04:09 | 42.76785 | -73.79453 | 37860 ft | 426 kts | 201° |
| 2026-04-30 04:09 | 42.71145 | -73.81888 | 37860 ft | 425 kts | 202° |
| 2026-04-30 04:10 | 42.65532 | -73.84432 | 37856 ft | 425 kts | 202° |
| 2026-04-30 04:10 | 42.59917 | -73.86959 | 37861 ft | 425 kts | 202° |
| 2026-04-30 04:11 | 42.56656 | -73.88421 | 37861 ft | 424 kts | 202° |
| 2026-04-30 04:14 | 42.55536 | -73.88923 | 37863 ft | 425 kts | 202° |
| 2026-04-30 04:14 | 42.49990 | -73.91401 | 37866 ft | 425 kts | 202° |
| 2026-04-30 04:15 | 42.44379 | -73.93902 | 37862 ft | 424 kts | 202° |
| 2026-04-30 04:15 | 42.38773 | -73.96397 | 37861 ft | 423 kts | 202° |
| 2026-04-30 04:16 | 42.33169 | -73.98886 | 37866 ft | 424 kts | 202° |
| 2026-04-30 04:16 | 42.27571 | -74.01370 | 37876 ft | 423 kts | 202° |
| 2026-04-30 04:17 | 42.21978 | -74.03847 | 37872 ft | 422 kts | 202° |
| 2026-04-30 04:17 | 42.16424 | -74.06300 | 37868 ft | 422 kts | 202° |
| 2026-04-30 04:18 | 42.10841 | -74.08758 | 37865 ft | 422 kts | 202° |
| 2026-04-30 04:18 | 42.05244 | -74.11227 | 37641 ft | 426 kts | 202° |
| 2026-04-30 04:18 | 42.02434 | -74.12463 | 37334 ft | 423 kts | 202° |
| 2026-04-30 04:19 | 41.99637 | -74.13688 | 36903 ft | 420 kts | 201° |
| 2026-04-30 04:19 | 41.96853 | -74.14907 | 36335 ft | 421 kts | 201° |
| 2026-04-30 04:19 | 41.94068 | -74.16127 | 35752 ft | 421 kts | 200° |
| 2026-04-30 04:19 | 41.91278 | -74.17348 | 35094 ft | 422 kts | 199° |
| 2026-04-30 04:20 | 41.88479 | -74.18571 | 34453 ft | 423 kts | 199° |
| 2026-04-30 04:20 | 41.85677 | -74.19795 | 33833 ft | 424 kts | 198° |
| 2026-04-30 04:20 | 41.82869 | -74.21026 | 33066 ft | 425 kts | 198° |
| 2026-04-30 04:20 | 41.80050 | -74.22254 | 32315 ft | 426 kts | 198° |
| 2026-04-30 04:21 | 41.77265 | -74.23465 | 31693 ft | 425 kts | 198° |
| 2026-04-30 04:21 | 41.74470 | -74.24681 | 31226 ft | 420 kts | 198° |
| 2026-04-30 04:21 | 41.71703 | -74.25884 | 30740 ft | 416 kts | 198° |
| 2026-04-30 04:21 | 41.68960 | -74.27076 | 30250 ft | 413 kts | 198° |
| 2026-04-30 04:22 | 41.66231 | -74.28262 | 29719 ft | 411 kts | 198° |
| 2026-04-30 04:22 | 41.63515 | -74.29441 | 29188 ft | 408 kts | 198° |
| 2026-04-30 04:22 | 41.60821 | -74.30608 | 28679 ft | 405 kts | 198° |
| 2026-04-30 04:22 | 41.58155 | -74.31762 | 28182 ft | 401 kts | 198° |
| 2026-04-30 04:23 | 41.55508 | -74.32907 | 27683 ft | 398 kts | 198° |
| 2026-04-30 04:23 | 41.52885 | -74.34044 | 27182 ft | 394 kts | 198° |
| 2026-04-30 04:23 | 41.50285 | -74.35168 | 26706 ft | 391 kts | 198° |
| 2026-04-30 04:23 | 41.47701 | -74.36282 | 26218 ft | 389 kts | 198° |
| 2026-04-30 04:24 | 41.45128 | -74.37390 | 25703 ft | 387 kts | 198° |
| 2026-04-30 04:24 | 41.42607 | -74.38476 | 25223 ft | 385 kts | 198° |
| 2026-04-30 04:24 | 41.40069 | -74.39575 | 24725 ft | 382 kts | 198° |
| 2026-04-30 04:24 | 41.37541 | -74.40664 | 24240 ft | 380 kts | 198° |
| 2026-04-30 04:25 | 41.35030 | -74.41741 | 23750 ft | 378 kts | 199° |
| 2026-04-30 04:25 | 41.32533 | -74.42811 | 23246 ft | 376 kts | 199° |
| 2026-04-30 04:25 | 41.30058 | -74.43872 | 22740 ft | 372 kts | 199° |
| 2026-04-30 04:25 | 41.27610 | -74.44924 | 22249 ft | 368 kts | 200° |
| 2026-04-30 04:26 | 41.25184 | -74.45964 | 21785 ft | 364 kts | 200° |
| 2026-04-30 04:26 | 41.22779 | -74.46990 | 21315 ft | 361 kts | 200° |
| 2026-04-30 04:26 | 41.20391 | -74.48011 | 20849 ft | 359 kts | 200° |
| 2026-04-30 04:26 | 41.18016 | -74.49025 | 20381 ft | 357 kts | 200° |
| 2026-04-30 04:27 | 41.15660 | -74.50032 | 19924 ft | 355 kts | 200° |
| 2026-04-30 04:27 | 41.13308 | -74.51035 | 19454 ft | 354 kts | 201° |
| 2026-04-30 04:27 | 41.10969 | -74.52034 | 19004 ft | 353 kts | 201° |
| 2026-04-30 04:27 | 41.08635 | -74.53027 | 18549 ft | 352 kts | 201° |
| 2026-04-30 04:28 | 41.06254 | -74.53812 | 18076 ft | 354 kts | 192° |
| 2026-04-30 04:28 | 41.03802 | -74.54140 | 17577 ft | 354 kts | 188° |
| 2026-04-30 04:28 | 41.01383 | -74.54357 | 17161 ft | 351 kts | 188° |
| 2026-04-30 04:28 | 40.98948 | -74.54569 | 16710 ft | 349 kts | 188° |
| 2026-04-30 04:29 | 40.96529 | -74.54785 | 16251 ft | 347 kts | 188° |
| 2026-04-30 04:29 | 40.94124 | -74.55003 | 15791 ft | 346 kts | 188° |
| 2026-04-30 04:29 | 40.91726 | -74.55223 | 15304 ft | 345 kts | 188° |
| 2026-04-30 04:29 | 40.89332 | -74.55442 | 14843 ft | 344 kts | 188° |
| 2026-04-30 04:30 | 40.86946 | -74.55661 | 14377 ft | 343 kts | 187° |
| 2026-04-30 04:30 | 40.84568 | -74.55879 | 13920 ft | 342 kts | 187° |
| 2026-04-30 04:30 | 40.82183 | -74.55966 | 13404 ft | 343 kts | 182° |
| 2026-04-30 04:30 | 40.79801 | -74.55859 | 13002 ft | 340 kts | 180° |
| 2026-04-30 04:31 | 40.77491 | -74.55405 | 12766 ft | 331 kts | 169° |
| 2026-04-30 04:31 | 40.75412 | -74.54305 | 12401 ft | 315 kts | 154° |
| 2026-04-30 04:31 | 40.74234 | -74.53212 | 11963 ft | 311 kts | 143° |
| 2026-04-30 04:31 | 40.72858 | -74.51038 | 11240 ft | 310 kts | 124° |
| 2026-04-30 04:32 | 40.71988 | -74.47500 | 10258 ft | 309 kts | 98° |
| 2026-04-30 04:32 | 40.72006 | -74.45576 | 9737 ft | 310 kts | 85° |
| 2026-04-30 04:32 | 40.73162 | -74.42219 | 8786 ft | 305 kts | 48° |
| 2026-04-30 04:32 | 40.74634 | -74.40295 | 8391 ft | 291 kts | 44° |
| 2026-04-30 04:33 | 40.75602 | -74.39098 | 8185 ft | 285 kts | 44° |
| 2026-04-30 04:33 | 40.77041 | -74.37300 | 7858 ft | 286 kts | 45° |
| 2026-04-30 04:33 | 40.78478 | -74.35476 | 7541 ft | 287 kts | 46° |
| 2026-04-30 04:33 | 40.79915 | -74.33628 | 7219 ft | 290 kts | 46° |
| 2026-04-30 04:34 | 40.81364 | -74.31755 | 6885 ft | 293 kts | 46° |
| 2026-04-30 04:34 | 40.82823 | -74.29861 | 6560 ft | 295 kts | 47° |
| 2026-04-30 04:34 | 40.84285 | -74.27960 | 6270 ft | 295 kts | 47° |
| 2026-04-30 04:34 | 40.85745 | -74.26058 | 5924 ft | 295 kts | 47° |
| 2026-04-30 04:35 | 40.87197 | -74.24167 | 5590 ft | 293 kts | 47° |
| 2026-04-30 04:35 | 40.88645 | -74.22267 | 5241 ft | 292 kts | 47° |
| 2026-04-30 04:35 | 40.90080 | -74.20392 | 4917 ft | 290 kts | 47° |
| 2026-04-30 04:35 | 40.91512 | -74.18458 | 4626 ft | 285 kts | 53° |
| 2026-04-30 04:36 | 40.92203 | -74.16979 | 4413 ft | 277 kts | 74° |
| 2026-04-30 04:36 | 40.92386 | -74.14581 | 4268 ft | 254 kts | 106° |
| 2026-04-30 04:36 | 40.91714 | -74.12591 | 4103 ft | 226 kts | 134° |
| 2026-04-30 04:36 | 40.90573 | -74.11364 | 3973 ft | 202 kts | 158° |
| 2026-04-30 04:37 | 40.89216 | -74.10820 | 3925 ft | 206 kts | 170° |
| 2026-04-30 04:37 | 40.87870 | -74.10275 | 3828 ft | 203 kts | 159° |
| 2026-04-30 04:37 | 40.86639 | -74.09305 | 3576 ft | 205 kts | 146° |
| 2026-04-30 04:37 | 40.85615 | -74.07967 | 3308 ft | 207 kts | 137° |
| 2026-04-30 04:38 | 40.84438 | -74.07118 | 3196 ft | 191 kts | 178° |
| 2026-04-30 04:38 | 40.83193 | -74.07475 | 3077 ft | 181 kts | 205° |
| 2026-04-30 04:38 | 40.82108 | -74.08264 | 2831 ft | 175 kts | 206° |
| 2026-04-30 04:38 | 40.81046 | -74.08963 | 2538 ft | 167 kts | 201° |
| 2026-04-30 04:39 | 40.80028 | -74.09593 | 2288 ft | 155 kts | 202° |
| 2026-04-30 04:39 | 40.79103 | -74.10191 | 2076 ft | 142 kts | 202° |
| 2026-04-30 04:39 | 40.78252 | -74.10734 | 1904 ft | 131 kts | 202° |
| 2026-04-30 04:39 | 40.77443 | -74.11250 | 1718 ft | 130 kts | 201° |
| 2026-04-30 04:40 | 40.76621 | -74.11775 | 1540 ft | 131 kts | 201° |
| 2026-04-30 04:40 | 40.75802 | -74.12298 | 1351 ft | 130 kts | 202° |
| 2026-04-30 04:40 | 40.74986 | -74.12819 | 1172 ft | 130 kts | 202° |
| 2026-04-30 04:40 | 40.74168 | -74.13340 | 995 ft | 130 kts | 204° |
| 2026-04-30 04:41 | 40.73350 | -74.13864 | 807 ft | 131 kts | 203° |
| 2026-04-30 04:41 | 40.72534 | -74.14382 | 623 ft | 130 kts | 205° |
| 2026-04-30 04:41 | 40.71717 | -74.14902 | 418 ft | 131 kts | 204° |
| 2026-04-30 04:41 | 40.70908 | -74.15417 | 295 ft | 132 kts | 206° |
| 2026-04-30 04:42 | 40.70078 | -74.15944 | 113 ft | 133 kts | 206° |
| 2026-04-30 04:42 | 40.69268 | -74.16462 | 29 ft | 117 kts | 206° |
| 2026-04-30 04:42 | 40.68686 | -74.16835 | 30 ft | 67 kts | 206° |
| 2026-04-30 04:42 | 40.68414 | -74.17011 | 26 ft | 29 kts | 209° |
| 2026-04-30 04:43 | 40.68266 | -74.17174 | 30 ft | 27 kts | 229° |
| 2026-04-30 04:43 | 40.68195 | -74.17311 | 30 ft | 15 kts | 236° |
| 2026-04-30 04:43 | 40.68147 | -74.17424 | 27 ft | 11 kts | 262° |
| 2026-04-30 04:43 | 40.68174 | -74.17525 | 30 ft | 13 kts | 296° |
| 2026-04-30 04:44 | 40.68213 | -74.17631 | 27 ft | 11 kts | 301° |
| 2026-04-30 04:44 | 40.68257 | -74.17657 | 30 ft | 8 kts | 341° |
| 2026-04-30 04:44 | 40.68302 | -74.17712 | 26 ft | 9 kts | 316° |
| 2026-04-30 04:44 | 40.68358 | -74.17705 | 26 ft | 10 kts | 26° |
| 2026-04-30 04:45 | 40.68439 | -74.17654 | 26 ft | 15 kts | 26° |
| 2026-04-30 04:45 | 40.68551 | -74.17582 | 26 ft | 20 kts | 26° |
| 2026-04-30 04:45 | 40.68677 | -74.17502 | 27 ft | 18 kts | 25° |
| 2026-04-30 04:45 | 40.68799 | -74.17425 | 26 ft | 21 kts | 25° |
| 2026-04-30 04:46 | 40.68933 | -74.17339 | 29 ft | 19 kts | 26° |
| 2026-04-30 04:46 | 40.69011 | -74.17299 | 31 ft | 8 kts | 359° |
| 2026-04-30 04:46 | 40.69053 | -74.17312 | 29 ft | 8 kts | 351° |
| 2026-04-30 04:46 | 40.69107 | -74.17333 | 30 ft | 7 kts | 329° |
| 2026-04-30 04:47 | 40.69126 | -74.17350 | 29 ft | 3 kts | 323° |
| 2026-04-30 04:47 | 40.69137 | -74.17363 | 31 ft | 1 kts | 321° |
| 2026-04-30 04:47 | 40.69138 | -74.17363 | 31 ft | 0 kts | 321° |